Time;durP1;ratioP1;P1;durP2;ratioP2;P2;SDS_P1;SDS_P2;PMS_P1;PMS_P2;Temp;Humidity;BMP_temperature;BMP_pressure;BME280_temperature;BME280_humidity;BME280_pressure;Samples;Min_cycle;Max_cycle;Signal;HPM_P1;HPM_P2
2022/10/27 00:03:28;;;;;;;;;;;;;;;13.28;83.17871;102149.5;;;;-73
2022/10/27 00:08:28;;;;;;;;;;;;;;;13.27;83.16602;102145.4;;;;-74
2022/10/27 00:13:29;;;;;;;;;;;;;;;13.26;83.70703;102149.1;;;;-75
2022/10/27 00:18:28;;;;;;;;;;;;;;;13.24;83.70605;102156.7;;;;-74
2022/10/27 00:20:35;;;;;;;5.9;1.8;;;;;;;;;;;;;-75
2022/10/27 00:23:28;;;;;;;;;;;;;;;13.21;83.99902;102158.2;;;;-74
2022/10/27 00:28:29;;;;;;;;;;;;;;;13.19;83.74023;102158.8;;;;-75
2022/10/27 00:33:28;;;;;;;;;;;;;;;13.2;83.8418;102166;;;;-75
2022/10/27 00:38:28;;;;;;;;;;;;;;;13.23;83.76758;102164.5;;;;-74
2022/10/27 00:43:33;;;;;;;;;;;;;;;13.24;83.59277;102171.2;;;;-75
2022/10/27 00:48:31;;;;;;;;;;;;;;;13.25;83.7832;102170.6;;;;-75
2022/10/27 00:50:36;;;;;;;5.2;2;;;;;;;;;;;;;-75
2022/10/27 00:53:28;;;;;;;;;;;;;;;13.29;84.2832;102167.1;;;;-75
2022/10/27 00:58:29;;;;;;;;;;;;;;;13.31;84.51855;102168.7;;;;-77
2022/10/27 01:03:28;;;;;;;;;;;;;;;13.28;84.66895;102171;;;;-74
2022/10/27 01:08:29;;;;;;;;;;;;;;;13.3;85.7627;102178.1;;;;-74
2022/10/27 01:13:29;;;;;;;;;;;;;;;13.31;85.10645;102181.5;;;;-75
2022/10/27 01:18:31;;;;;;;;;;;;;;;13.3;85.29492;102183.3;;;;-75
2022/10/27 01:20:49;;;;;;;5.2;2.8;;;;;;;;;;;;;-74
2022/10/27 01:23:34;;;;;;;;;;;;;;;13.28;85.36816;102183.9;;;;-74
2022/10/27 01:28:34;;;;;;;;;;;;;;;13.26;85.35352;102191.5;;;;-73
2022/10/27 01:33:32;;;;;;;;;;;;;;;13.21;85.17773;102181.8;;;;-74
2022/10/27 01:38:31;;;;;;;;;;;;;;;13.19;85.20898;102188.4;;;;-75
2022/10/27 01:43:29;;;;;;;;;;;;;;;13.14;84.68555;102181.6;;;;-74
2022/10/27 01:48:28;;;;;;;;;;;;;;;13.13;84.88379;102177.6;;;;-71
2022/10/27 01:50:42;;;;;;;7.5;3;;;;;;;;;;;;;-71
2022/10/27 01:53:29;;;;;;;;;;;;;;;13.13;86.55078;102174.1;;;;-71
2022/10/27 01:58:34;;;;;;;;;;;;;;;13.1;85.40137;102171.2;;;;-71
2022/10/27 02:03:30;;;;;;;;;;;;;;;13.11;85.73828;102175.9;;;;-71
2022/10/27 02:08:31;;;;;;;;;;;;;;;13.09;85.49023;102174.6;;;;-71
2022/10/27 02:13:29;;;;;;;;;;;;;;;13.07;85.25098;102170.7;;;;-70
2022/10/27 02:18:33;;;;;;;;;;;;;;;13.07;85.81738;102164.9;;;;-71
2022/10/27 02:20:41;;;;;;;8.8;3.6;;;;;;;;;;;;;-72
2022/10/27 02:23:28;;;;;;;;;;;;;;;13.05;86.37891;102160.4;;;;-70
2022/10/27 02:28:31;;;;;;;;;;;;;;;12.98;85.61133;102155.9;;;;-72
2022/10/27 02:33:29;;;;;;;;;;;;;;;12.95;85.53809;102158.4;;;;-70
2022/10/27 02:38:28;;;;;;;;;;;;;;;12.95;85.87109;102157.1;;;;-71
2022/10/27 02:43:28;;;;;;;;;;;;;;;12.97;87.31934;102161.2;;;;-73
2022/10/27 02:48:28;;;;;;;;;;;;;;;12.93;87.0459;102164.1;;;;-71
2022/10/27 02:50:41;;;;;;;7.6;3.7;;;;;;;;;;;;;-72
2022/10/27 02:53:28;;;;;;;;;;;;;;;12.9;86.06152;102159.5;;;;-69
2022/10/27 02:58:28;;;;;;;;;;;;;;;12.85;86.13965;102153.2;;;;-71
2022/10/27 03:03:28;;;;;;;;;;;;;;;12.83;86.3916;102153.3;;;;-71
2022/10/27 03:08:29;;;;;;;;;;;;;;;12.82;86.36816;102151.6;;;;-71
2022/10/27 03:13:28;;;;;;;;;;;;;;;12.81;86.15332;102153.2;;;;-75
2022/10/27 03:18:29;;;;;;;;;;;;;;;12.77;85.74805;102150.8;;;;-74
2022/10/27 03:20:42;;;;;;;6.3;3.7;;;;;;;;;;;;;-75
2022/10/27 03:23:28;;;;;;;;;;;;;;;12.72;85.57324;102153.7;;;;-76
2022/10/27 03:28:29;;;;;;;;;;;;;;;12.74;85.80762;102159.8;;;;-76
2022/10/27 03:33:28;;;;;;;;;;;;;;;12.73;85.83984;102152.3;;;;-74
2022/10/27 03:38:29;;;;;;;;;;;;;;;12.7;85.47852;102147.9;;;;-75
2022/10/27 03:43:28;;;;;;;;;;;;;;;12.7;85.95605;102149;;;;-74
2022/10/27 03:48:30;;;;;;;;;;;;;;;12.68;85.98535;102151;;;;-74
2022/10/27 03:50:47;;;;;;;7.9;3.7;;;;;;;;;;;;;-75
2022/10/27 03:53:32;;;;;;;;;;;;;;;12.69;85.74316;102155.1;;;;-76
2022/10/27 03:58:31;;;;;;;;;;;;;;;12.64;85.55664;102154.3;;;;-75
2022/10/27 04:03:29;;;;;;;;;;;;;;;12.68;85.93066;102160.3;;;;-75
2022/10/27 04:08:31;;;;;;;;;;;;;;;12.65;85.75879;102161.4;;;;-74
2022/10/27 04:13:28;;;;;;;;;;;;;;;12.69;86.26563;102162;;;;-75
2022/10/27 04:18:29;;;;;;;;;;;;;;;12.69;85.94531;102165.3;;;;-75
2022/10/27 04:20:45;;;;;;;7.2;3.9;;;;;;;;;;;;;-75
2022/10/27 04:23:28;;;;;;;;;;;;;;;12.69;86.10938;102161.8;;;;-74
2022/10/27 04:28:29;;;;;;;;;;;;;;;12.73;87.09375;102166.5;;;;-75
2022/10/27 04:33:28;;;;;;;;;;;;;;;12.76;86.70117;102162.9;;;;-75
2022/10/27 04:38:28;;;;;;;;;;;;;;;12.74;86.73145;102159.2;;;;-74
2022/10/27 04:43:28;;;;;;;;;;;;;;;12.76;86.76563;102165.2;;;;-75
2022/10/27 04:48:28;;;;;;;;;;;;;;;12.75;86.50879;102162.9;;;;-74
2022/10/27 04:50:46;;;;;;;7.6;3.8;;;;;;;;;;;;;-75
2022/10/27 04:53:30;;;;;;;;;;;;;;;12.79;87.74805;102165.4;;;;-75
2022/10/27 04:58:28;;;;;;;;;;;;;;;12.78;86.61426;102160.3;;;;-74
2022/10/27 05:03:28;;;;;;;;;;;;;;;12.8;87.05273;102155.3;;;;-74
2022/10/27 05:08:29;;;;;;;;;;;;;;;12.74;87.48535;102152.9;;;;-75
2022/10/27 05:13:28;;;;;;;;;;;;;;;12.72;86.42578;102147.9;;;;-75
2022/10/27 05:18:29;;;;;;;;;;;;;;;12.71;86.95898;102142.7;;;;-74
2022/10/27 05:20:47;;;;;;;6.9;3.6;;;;;;;;;;;;;-75
2022/10/27 05:23:28;;;;;;;;;;;;;;;12.67;86.49316;102141.8;;;;-74
2022/10/27 05:28:30;;;;;;;;;;;;;;;12.62;86.68555;102138.6;;;;-76
2022/10/27 05:33:30;;;;;;;;;;;;;;;12.59;86.42285;102139;;;;-75
2022/10/27 05:38:28;;;;;;;;;;;;;;;12.54;86.61426;102142.6;;;;-74
2022/10/27 05:43:28;;;;;;;;;;;;;;;12.53;87.06543;102139.5;;;;-75
2022/10/27 05:48:28;;;;;;;;;;;;;;;12.5;86.95996;102140;;;;-76
2022/10/27 05:50:48;;;;;;;7.8;3.5;;;;;;;;;;;;;-75
2022/10/27 05:53:28;;;;;;;;;;;;;;;12.48;87.16699;102142;;;;-74
2022/10/27 05:58:29;;;;;;;;;;;;;;;12.44;87.24707;102138;;;;-75
2022/10/27 06:03:29;;;;;;;;;;;;;;;12.42;87.03418;102136.1;;;;-75
2022/10/27 06:08:28;;;;;;;;;;;;;;;12.39;86.99414;102131.3;;;;-76
2022/10/27 06:13:29;;;;;;;;;;;;;;;12.38;87.19141;102127;;;;-75
2022/10/27 06:18:28;;;;;;;;;;;;;;;12.36;87.2207;102123.4;;;;-75
2022/10/27 06:20:50;;;;;;;7.4;3.4;;;;;;;;;;;;;-74
2022/10/27 06:23:28;;;;;;;;;;;;;;;12.35;87.47461;102121;;;;-75
2022/10/27 06:28:28;;;;;;;;;;;;;;;12.34;87.69434;102119.9;;;;-75
2022/10/27 06:33:29;;;;;;;;;;;;;;;12.33;87.53516;102113;;;;-74
2022/10/27 06:38:28;;;;;;;;;;;;;;;12.31;87.45215;102113;;;;-75
2022/10/27 06:43:28;;;;;;;;;;;;;;;12.3;88.01758;102114.4;;;;-76
2022/10/27 06:48:29;;;;;;;;;;;;;;;12.31;88.01953;102111.7;;;;-75
2022/10/27 06:50:50;;;;;;;5.5;3;;;;;;;;;;;;;-75
2022/10/27 06:53:28;;;;;;;;;;;;;;;12.35;88.31543;102107.9;;;;-74
2022/10/27 06:58:28;;;;;;;;;;;;;;;12.34;87.98242;102100.2;;;;-75
2022/10/27 07:03:30;;;;;;;;;;;;;;;12.37;88.1875;102096.6;;;;-75
2022/10/27 07:08:30;;;;;;;;;;;;;;;12.36;87.85352;102103.2;;;;-75
2022/10/27 07:13:28;;;;;;;;;;;;;;;12.43;87.85449;102104.8;;;;-74
2022/10/27 07:18:28;;;;;;;;;;;;;;;12.42;87.93066;102111.5;;;;-74
2022/10/27 07:20:52;;;;;;;5.8;2.5;;;;;;;;;;;;;-75
2022/10/27 07:23:28;;;;;;;;;;;;;;;12.44;87.72363;102114.5;;;;-75
2022/10/27 07:28:28;;;;;;;;;;;;;;;12.47;87.67578;102114.7;;;;-74
2022/10/27 07:33:29;;;;;;;;;;;;;;;12.52;87.5293;102108.9;;;;-73
2022/10/27 07:38:28;;;;;;;;;;;;;;;12.54;88.11133;102103.8;;;;-75
2022/10/27 07:43:28;;;;;;;;;;;;;;;12.61;87.5918;102105.5;;;;-75
2022/10/27 07:48:28;;;;;;;;;;;;;;;12.73;89.21289;102108;;;;-74
2022/10/27 07:50:54;;;;;;;5.8;2.3;;;;;;;;;;;;;-74
2022/10/27 07:53:28;;;;;;;;;;;;;;;12.86;88.70801;102113.3;;;;-74
2022/10/27 07:58:28;;;;;;;;;;;;;;;13.01;88.25977;102120.2;;;;-74
2022/10/27 08:03:31;;;;;;;;;;;;;;;13.15;87.88867;102117.4;;;;-76
2022/10/27 08:08:28;;;;;;;;;;;;;;;13.35;88.09375;102113.6;;;;-74
2022/10/27 08:13:31;;;;;;;;;;;;;;;13.53;87.18555;102114.6;;;;-74
2022/10/27 08:18:28;;;;;;;;;;;;;;;13.69;86.80664;102110.6;;;;-75
2022/10/27 08:20:54;;;;;;;4.6;2;;;;;;;;;;;;;-74
2022/10/27 08:23:28;;;;;;;;;;;;;;;13.85;86.45801;102099;;;;-74
2022/10/27 08:28:29;;;;;;;;;;;;;;;13.96;86.42383;102098.4;;;;-74
2022/10/27 08:33:28;;;;;;;;;;;;;;;14.15;85.98242;102096.3;;;;-75
2022/10/27 08:38:31;;;;;;;;;;;;;;;14.23;85.39844;102082.3;;;;-74
2022/10/27 08:43:35;;;;;;;;;;;;;;;14.34;85.12793;102078.7;;;;-74
2022/10/27 08:48:29;;;;;;;;;;;;;;;14.4;84.99414;102077.4;;;;-74
2022/10/27 08:50:58;;;;;;;3.8;1.9;;;;;;;;;;;;;-74
2022/10/27 08:53:33;;;;;;;;;;;;;;;14.55;84.62402;102074.9;;;;-74
2022/10/27 08:58:36;;;;;;;;;;;;;;;14.58;84.38184;102075;;;;-72
2022/10/27 09:03:40;;;;;;;;;;;;;;;14.72;84.2207;102072.9;;;;-74
2022/10/27 09:08:32;;;;;;;;;;;;;;;14.83;83.77246;102064.6;;;;-73
2022/10/27 09:13:37;;;;;;;;;;;;;;;14.94;83.2793;102070.5;;;;-74
2022/10/27 09:18:35;;;;;;;;;;;;;;;14.96;83.15039;102076.4;;;;-73
2022/10/27 09:20:58;;;;;;;5.2;1.5;;;;;;;;;;;;;-75
2022/10/27 09:23:31;;;;;;;;;;;;;;;15.07;82.78027;102061;;;;-74
2022/10/27 09:28:31;;;;;;;;;;;;;;;15.22;82.62891;102045;;;;-73
2022/10/27 09:33:33;;;;;;;;;;;;;;;15.41;81.8125;102040.5;;;;-73
2022/10/27 09:38:31;;;;;;;;;;;;;;;15.64;81.58789;102029.5;;;;-76
2022/10/27 09:43:29;;;;;;;;;;;;;;;15.68;80.94727;102018.8;;;;-74
2022/10/27 09:48:29;;;;;;;;;;;;;;;15.84;80.77344;102016.3;;;;-74
2022/10/27 09:51:01;;;;;;;4.1;1.4;;;;;;;;;;;;;-74
2022/10/27 09:53:42;;;;;;;;;;;;;;;15.96;80.10059;102013.2;;;;-73
2022/10/27 09:58:28;;;;;;;;;;;;;;;16.11;79.33301;102024.8;;;;-75
2022/10/27 10:03:31;;;;;;;;;;;;;;;16.29;78.92676;102023;;;;-74
2022/10/27 10:08:29;;;;;;;;;;;;;;;16.38;77.47461;102019.2;;;;-73
2022/10/27 10:13:30;;;;;;;;;;;;;;;16.5;77.6748;102005.5;;;;-73
2022/10/27 10:18:32;;;;;;;;;;;;;;;16.63;76.78711;101997.1;;;;-74
2022/10/27 10:21:04;;;;;;;6.3;1.3;;;;;;;;;;;;;-74
2022/10/27 10:23:29;;;;;;;;;;;;;;;16.58;77.06055;101993.8;;;;-73
2022/10/27 10:28:33;;;;;;;;;;;;;;;16.64;76.58691;101998;;;;-73
2022/10/27 10:33:31;;;;;;;;;;;;;;;16.66;76.83691;101989.3;;;;-76
2022/10/27 10:38:33;;;;;;;;;;;;;;;16.71;76.375;101977.8;;;;-73
2022/10/27 10:43:29;;;;;;;;;;;;;;;16.81;76.31152;101980.9;;;;-75
2022/10/27 10:48:45;;;;;;;;;;;;;;;16.92;76.10547;101972.2;;;;-74
2022/10/27 10:51:02;;;;;;;5.1;1.3;;;;;;;;;;;;;-74
2022/10/27 10:53:30;;;;;;;;;;;;;;;17.09;75.70801;101969.2;;;;-74
2022/10/27 10:58:30;;;;;;;;;;;;;;;17.26;75.5918;101972.9;;;;-74
2022/10/27 11:03:30;;;;;;;;;;;;;;;17.35;74.8418;101965;;;;-75
2022/10/27 11:08:32;;;;;;;;;;;;;;;17.46;74.88281;101960.1;;;;-74
2022/10/27 11:13:30;;;;;;;;;;;;;;;17.59;74.56738;101949.8;;;;-75
2022/10/27 11:18:30;;;;;;;;;;;;;;;17.66;74.22949;101942.9;;;;-74
2022/10/27 11:21:06;;;;;;;4.4;1.5;;;;;;;;;;;;;-75
2022/10/27 11:23:31;;;;;;;;;;;;;;;17.78;73.77539;101940.4;;;;-74
2022/10/27 11:28:32;;;;;;;;;;;;;;;17.94;73.80273;101946;;;;-75
2022/10/27 11:33:33;;;;;;;;;;;;;;;18.16;73.15039;101934.8;;;;-73
2022/10/27 11:38:35;;;;;;;;;;;;;;;18.2;72.98926;101930.6;;;;-74
2022/10/27 11:43:32;;;;;;;;;;;;;;;18.21;73.02246;101928.4;;;;-75
2022/10/27 11:48:38;;;;;;;;;;;;;;;18.2;72.99902;101922;;;;-75
2022/10/27 11:51:13;;;;;;;4;1.5;;;;;;;;;;;;;-73
2022/10/27 11:53:28;;;;;;;;;;;;;;;18.17;72.75781;101913;;;;-74
2022/10/27 11:58:33;;;;;;;;;;;;;;;18.17;73.41016;101913.2;;;;-74
2022/10/27 12:03:38;;;;;;;;;;;;;;;18.12;72.71484;101908.8;;;;-74
2022/10/27 12:08:32;;;;;;;;;;;;;;;18.04;73.36621;101898.3;;;;-74
2022/10/27 12:13:32;;;;;;;;;;;;;;;17.98;73.27832;101919.6;;;;-75
2022/10/27 12:18:32;;;;;;;;;;;;;;;17.92;73.45996;101927.5;;;;-74
2022/10/27 12:21:16;;;;;;;5.7;1.4;;;;;;;;;;;;;-75
2022/10/27 12:23:33;;;;;;;;;;;;;;;17.82;73.9502;101898.2;;;;-74
2022/10/27 12:28:29;;;;;;;;;;;;;;;17.73;74.38574;101880.1;;;;-75
2022/10/27 12:33:32;;;;;;;;;;;;;;;17.65;74.62207;101864.3;;;;-75
2022/10/27 12:38:33;;;;;;;;;;;;;;;17.62;74.83008;101862.1;;;;-75
2022/10/27 12:43:33;;;;;;;;;;;;;;;17.59;75.16309;101868.2;;;;-75
2022/10/27 12:48:33;;;;;;;;;;;;;;;17.55;75.43848;101867;;;;-75
2022/10/27 12:51:17;;;;;;;4.3;1.6;;;;;;;;;;;;;-74
2022/10/27 12:53:46;;;;;;;;;;;;;;;17.54;75.65039;101859;;;;-75
2022/10/27 12:58:36;;;;;;;;;;;;;;;17.59;75.71289;101846.5;;;;-73
2022/10/27 13:03:48;;;;;;;;;;;;;;;17.63;75.8916;101825.8;;;;-75
2022/10/27 13:08:51;;;;;;;;;;;;;;;17.69;75.83301;101811.5;;;;-75
2022/10/27 13:13:40;;;;;;;;;;;;;;;17.73;75.63867;101788.9;;;;-77
2022/10/27 13:18:39;;;;;;;;;;;;;;;17.78;75.4541;101780.6;;;;-74
2022/10/27 13:21:17;;;;;;;4.7;1.6;;;;;;;;;;;;;-76
2022/10/27 13:23:35;;;;;;;;;;;;;;;17.8;75.35742;101778.9;;;;-74
2022/10/27 13:28:33;;;;;;;;;;;;;;;17.82;75.78906;101787.1;;;;-74
2022/10/27 13:33:41;;;;;;;;;;;;;;;17.82;75.37207;101790.9;;;;-75
2022/10/27 13:38:29;;;;;;;;;;;;;;;17.88;75.74219;101793.7;;;;-72
2022/10/27 13:43:53;;;;;;;;;;;;;;;17.95;75.49512;101801.9;;;;-75
2022/10/27 13:48:37;;;;;;;;;;;;;;;18.07;75.70703;101807.2;;;;-73
2022/10/27 13:51:27;;;;;;;5.4;1.6;;;;;;;;;;;;;-74
2022/10/27 13:53:39;;;;;;;;;;;;;;;18.18;75.47754;101814.5;;;;-74
2022/10/27 13:58:36;;;;;;;;;;;;;;;18.31;75.10547;101806.8;;;;-73
2022/10/27 14:03:36;;;;;;;;;;;;;;;18.37;74.60742;101797.8;;;;-75
2022/10/27 14:08:29;;;;;;;;;;;;;;;18.41;74.28711;101788.4;;;;-75
2022/10/27 14:13:37;;;;;;;;;;;;;;;18.51;74.26855;101798.9;;;;-75
2022/10/27 14:17:59;;;;;;;;;;;;;;;18.63;73.99512;101796;;;;-74
2022/10/27 14:21:21;;;;;;;6.5;1.4;;;;;;;;;;;;;-74
2022/10/27 14:22:26;;;;;;;;;;;;;;;18.65;74.04492;101793.9;;;;-74
2022/10/27 14:27:17;;;;;;;;;;;;;;;18.72;73.61426;101797;;;;-74
2022/10/27 14:32:23;;;;;;;;;;;;;;;18.86;73.30957;101807.8;;;;-75
2022/10/27 14:37:17;;;;;;;;;;;;;;;18.89;73.04297;101803.1;;;;-75
2022/10/27 14:42:19;;;;;;;;;;;;;;;18.88;73.09961;101789.9;;;;-74
2022/10/27 14:47:14;;;;;;;;;;;;;;;18.84;73.05957;101796;;;;-76
2022/10/27 14:51:20;;;;;;;4;1.5;;;;;;;;;;;;;-75
2022/10/27 14:52:19;;;;;;;;;;;;;;;18.76;73.12402;101793.8;;;;-75
2022/10/27 14:57:24;;;;;;;;;;;;;;;18.65;73.28809;101803.7;;;;-74
2022/10/27 15:02:15;;;;;;;;;;;;;;;18.57;73.3291;101811.4;;;;-74
2022/10/27 15:07:19;;;;;;;;;;;;;;;18.47;73.92285;101801.1;;;;-74
2022/10/27 15:12:20;;;;;;;;;;;;;;;18.37;74.01074;101793.6;;;;-74
2022/10/27 15:17:15;;;;;;;;;;;;;;;18.3;73.95313;101803.9;;;;-74
2022/10/27 15:21:23;;;;;;;7.3;2;;;;;;;;;;;;;-74
2022/10/27 15:22:12;;;;;;;;;;;;;;;18.29;74.16309;101807.8;;;;-75
2022/10/27 15:27:14;;;;;;;;;;;;;;;18.19;74.58789;101814.7;;;;-74
2022/10/27 15:32:21;;;;;;;;;;;;;;;18.14;74.88281;101829.4;;;;-75
2022/10/27 15:37:29;;;;;;;;;;;;;;;18.07;75.14258;101818.1;;;;-75
2022/10/27 15:42:20;;;;;;;;;;;;;;;18.02;75.13379;101821.3;;;;-74
2022/10/27 15:47:23;;;;;;;;;;;;;;;17.94;76.23535;101816.8;;;;-73
2022/10/27 15:51:25;;;;;;;6;1.9;;;;;;;;;;;;;-75
2022/10/27 15:52:21;;;;;;;;;;;;;;;17.88;75.86621;101826.6;;;;-74
2022/10/27 15:57:22;;;;;;;;;;;;;;;17.81;76.10156;101828.7;;;;-75
2022/10/27 16:02:23;;;;;;;;;;;;;;;17.74;76.59668;101839.7;;;;-74
2022/10/27 16:07:24;;;;;;;;;;;;;;;17.65;76.6377;101836.4;;;;-74
2022/10/27 16:12:17;;;;;;;;;;;;;;;17.57;77.28906;101832.8;;;;-74
2022/10/27 16:17:15;;;;;;;;;;;;;;;17.48;77.54199;101830.7;;;;-74
2022/10/27 16:21:31;;;;;;;4.2;1.9;;;;;;;;;;;;;-74
2022/10/27 16:22:14;;;;;;;;;;;;;;;17.38;77.72656;101833.3;;;;-74
2022/10/27 16:27:14;;;;;;;;;;;;;;;17.3;78.01563;101838.9;;;;-74
2022/10/27 16:32:14;;;;;;;;;;;;;;;17.21;78.32617;101848.4;;;;-73
2022/10/27 16:37:18;;;;;;;;;;;;;;;17.12;78.48047;101847;;;;-74
2022/10/27 16:42:14;;;;;;;;;;;;;;;17.04;78.7334;101853.4;;;;-74
2022/10/27 16:47:15;;;;;;;;;;;;;;;16.96;78.97949;101848.3;;;;-74
2022/10/27 16:51:29;;;;;;;6.6;2.2;;;;;;;;;;;;;-74
2022/10/27 16:52:12;;;;;;;;;;;;;;;16.88;79.13281;101846;;;;-74
2022/10/27 16:57:13;;;;;;;;;;;;;;;16.79;79.61035;101838.4;;;;-75
2022/10/27 17:02:14;;;;;;;;;;;;;;;16.71;79.74414;101844.8;;;;-75
2022/10/27 17:07:12;;;;;;;;;;;;;;;16.64;80.21289;101848.7;;;;-75
2022/10/27 17:12:14;;;;;;;;;;;;;;;16.56;80.13086;101838.1;;;;-75
2022/10/27 17:17:12;;;;;;;;;;;;;;;16.5;80.45605;101841.2;;;;-74
2022/10/27 17:21:31;;;;;;;7.4;2.4;;;;;;;;;;;;;-75
2022/10/27 17:22:12;;;;;;;;;;;;;;;16.43;81.09473;101834.1;;;;-76
2022/10/27 17:27:12;;;;;;;;;;;;;;;16.37;81.0498;101831.1;;;;-75
2022/10/27 17:32:12;;;;;;;;;;;;;;;16.32;81.11816;101830.1;;;;-74
2022/10/27 17:37:14;;;;;;;;;;;;;;;16.27;81.33398;101837.1;;;;-74
2022/10/27 17:42:12;;;;;;;;;;;;;;;16.21;81.05469;101843.2;;;;-74
2022/10/27 17:47:13;;;;;;;;;;;;;;;16.16;81.30273;101842.3;;;;-75
2022/10/27 17:51:34;;;;;;;7.6;2.7;;;;;;;;;;;;;-74
2022/10/27 17:52:15;;;;;;;;;;;;;;;16.09;81.36719;101844.2;;;;-74
2022/10/27 17:57:12;;;;;;;;;;;;;;;16.03;81.56836;101840.9;;;;-74
2022/10/27 18:02:13;;;;;;;;;;;;;;;15.98;81.39258;101846.3;;;;-74
2022/10/27 18:07:12;;;;;;;;;;;;;;;15.92;81.71777;101854.2;;;;-75
2022/10/27 18:12:13;;;;;;;;;;;;;;;15.86;81.67285;101860.1;;;;-75
2022/10/27 18:17:13;;;;;;;;;;;;;;;15.79;81.84961;101862.1;;;;-75
2022/10/27 18:21:37;;;;;;;7.1;2.7;;;;;;;;;;;;;-76
2022/10/27 18:22:12;;;;;;;;;;;;;;;15.73;81.49316;101859.3;;;;-76
2022/10/27 18:27:12;;;;;;;;;;;;;;;15.67;81.77148;101859.5;;;;-74
2022/10/27 18:32:18;;;;;;;;;;;;;;;15.6;81.92676;101846.2;;;;-75
2022/10/27 18:37:12;;;;;;;;;;;;;;;15.55;81.81738;101852.2;;;;-75
2022/10/27 18:42:14;;;;;;;;;;;;;;;15.49;81.92969;101856.5;;;;-75
2022/10/27 18:47:12;;;;;;;;;;;;;;;15.43;82.47949;101856.8;;;;-75
2022/10/27 18:51:39;;;;;;;7.3;2.9;;;;;;;;;;;;;-74
2022/10/27 18:52:12;;;;;;;;;;;;;;;15.38;82.17676;101855;;;;-75
2022/10/27 18:57:12;;;;;;;;;;;;;;;15.32;82.09961;101848.2;;;;-76
2022/10/27 19:02:13;;;;;;;;;;;;;;;15.27;82.23633;101848.6;;;;-74
2022/10/27 19:07:12;;;;;;;;;;;;;;;15.24;82.08398;101846;;;;-75
2022/10/27 19:12:13;;;;;;;;;;;;;;;15.22;82.59375;101849.2;;;;-75
2022/10/27 19:17:14;;;;;;;;;;;;;;;15.18;82.54395;101852.6;;;;-74
2022/10/27 19:21:50;;;;;;;7.9;3.4;;;;;;;;;;;;;-75
2022/10/27 19:22:13;;;;;;;;;;;;;;;15.21;82.9043;101851.4;;;;-74
2022/10/27 19:27:15;;;;;;;;;;;;;;;15.23;82.82227;101855.3;;;;-74
2022/10/27 19:32:13;;;;;;;;;;;;;;;15.25;83.42676;101869.2;;;;-75
2022/10/27 19:37:12;;;;;;;;;;;;;;;15.27;83.0957;101866.5;;;;-75
2022/10/27 19:42:12;;;;;;;;;;;;;;;15.3;83.08008;101858.8;;;;-76
2022/10/27 19:47:12;;;;;;;;;;;;;;;15.31;83.15918;101849.7;;;;-75
2022/10/27 19:51:41;;;;;;;10.8;4.2;;;;;;;;;;;;;-74
2022/10/27 19:52:17;;;;;;;;;;;;;;;15.35;83.09961;101855;;;;-74
2022/10/27 19:57:14;;;;;;;;;;;;;;;15.38;83.02637;101858.7;;;;-75
2022/10/27 20:02:18;;;;;;;;;;;;;;;15.42;83.63672;101859.7;;;;-74
2022/10/27 20:07:12;;;;;;;;;;;;;;;15.44;83.51855;101862.6;;;;-74
2022/10/27 20:12:12;;;;;;;;;;;;;;;15.48;83.40332;101867.9;;;;-77
2022/10/27 20:17:14;;;;;;;;;;;;;;;15.49;83.38379;101878.1;;;;-74
2022/10/27 20:21:43;;;;;;;11.6;4.2;;;;;;;;;;;;;-74
2022/10/27 20:22:12;;;;;;;;;;;;;;;15.48;83.0918;101884.3;;;;-74
2022/10/27 20:27:12;;;;;;;;;;;;;;;15.5;83.08203;101886.6;;;;-75
2022/10/27 20:32:12;;;;;;;;;;;;;;;15.49;82.82324;101887.4;;;;-74
2022/10/27 20:37:12;;;;;;;;;;;;;;;15.48;82.83398;101892.7;;;;-74
2022/10/27 20:42:12;;;;;;;;;;;;;;;15.47;82.5957;101895.8;;;;-71
2022/10/27 20:47:15;;;;;;;;;;;;;;;15.46;82.8418;101900.5;;;;-71
2022/10/27 20:51:46;;;;;;;8.6;4.1;;;;;;;;;;;;;-75
2022/10/27 20:52:12;;;;;;;;;;;;;;;15.45;82.77148;101893.6;;;;-75
2022/10/27 20:57:12;;;;;;;;;;;;;;;15.42;82.72168;101890.6;;;;-75
2022/10/27 21:02:12;;;;;;;;;;;;;;;15.42;82.59863;101890.5;;;;-74
2022/10/27 21:07:12;;;;;;;;;;;;;;;15.39;82.48047;101888.4;;;;-73
2022/10/27 21:12:12;;;;;;;;;;;;;;;15.38;82.40039;101873;;;;-74
2022/10/27 21:17:14;;;;;;;;;;;;;;;15.37;82.29785;101888.2;;;;-74
2022/10/27 21:21:45;;;;;;;9.7;3.9;;;;;;;;;;;;;-74
2022/10/27 21:22:12;;;;;;;;;;;;;;;15.35;82.26074;101880.1;;;;-74
2022/10/27 21:27:12;;;;;;;;;;;;;;;15.3;82.23047;101880.9;;;;-74
2022/10/27 21:32:12;;;;;;;;;;;;;;;15.26;82.38965;101875.1;;;;-74
2022/10/27 21:37:13;;;;;;;;;;;;;;;15.22;82.42578;101871.1;;;;-75
2022/10/27 21:42:14;;;;;;;;;;;;;;;15.18;82.56445;101863.9;;;;-74
2022/10/27 21:47:12;;;;;;;;;;;;;;;15.14;83.09375;101870.5;;;;-75
2022/10/27 21:51:51;;;;;;;7.9;3.9;;;;;;;;;;;;;-75
2022/10/27 21:52:12;;;;;;;;;;;;;;;15.11;83.6582;101868.6;;;;-75
2022/10/27 21:57:12;;;;;;;;;;;;;;;15.07;82.80273;101867.2;;;;-75
2022/10/27 22:02:12;;;;;;;;;;;;;;;15.06;83.61621;101857.7;;;;-73
2022/10/27 22:07:12;;;;;;;;;;;;;;;15.05;83.47852;101860.3;;;;-74
2022/10/27 22:12:12;;;;;;;;;;;;;;;15.05;83.35449;101859.4;;;;-75
2022/10/27 22:17:12;;;;;;;;;;;;;;;15.05;83.5459;101858.4;;;;-74
2022/10/27 22:21:49;;;;;;;9.2;4.2;;;;;;;;;;;;;-74
2022/10/27 22:22:12;;;;;;;;;;;;;;;15.05;83.98145;101860.6;;;;-75
2022/10/27 22:27:12;;;;;;;;;;;;;;;15.04;83.32031;101863.6;;;;-74
2022/10/27 22:32:12;;;;;;;;;;;;;;;15.04;83.21973;101869;;;;-76
2022/10/27 22:37:12;;;;;;;;;;;;;;;15.03;83.39746;101868.3;;;;-74
2022/10/27 22:42:12;;;;;;;;;;;;;;;15.01;83.34863;101849.8;;;;-74
2022/10/27 22:47:12;;;;;;;;;;;;;;;15;83.53516;101832.2;;;;-75
2022/10/27 22:51:50;;;;;;;11.6;4.3;;;;;;;;;;;;;-74
2022/10/27 22:52:12;;;;;;;;;;;;;;;14.98;83.07422;101730.5;;;;-74
2022/10/27 22:57:14;;;;;;;;;;;;;;;15.04;84.0127;101828.1;;;;-75
2022/10/27 23:02:14;;;;;;;;;;;;;;;15.06;83.94922;101856.3;;;;-74
2022/10/27 23:07:12;;;;;;;;;;;;;;;15.05;83.87891;101852.4;;;;-76
2022/10/27 23:12:14;;;;;;;;;;;;;;;15.02;84.55664;101847.2;;;;-75
2022/10/27 23:17:12;;;;;;;;;;;;;;;15;84.76563;101833.8;;;;-75
2022/10/27 23:21:51;;;;;;;11.3;4.5;;;;;;;;;;;;;-75
2022/10/27 23:22:12;;;;;;;;;;;;;;;14.97;84.69141;101824.8;;;;-75
2022/10/27 23:27:12;;;;;;;;;;;;;;;14.94;85.09863;101818.4;;;;-75
2022/10/27 23:32:13;;;;;;;;;;;;;;;14.91;85.5293;101826;;;;-75
2022/10/27 23:37:12;;;;;;;;;;;;;;;14.9;85.44922;101827.1;;;;-74
2022/10/27 23:42:13;;;;;;;;;;;;;;;14.87;85.64258;101833.7;;;;-75
2022/10/27 23:47:12;;;;;;;;;;;;;;;14.84;85.4707;101837.1;;;;-74
2022/10/27 23:51:53;;;;;;;12.1;4.9;;;;;;;;;;;;;-75
2022/10/27 23:52:12;;;;;;;;;;;;;;;14.84;85.68262;101822.5;;;;-75
2022/10/27 23:57:12;;;;;;;;;;;;;;;14.83;85.63574;101812.4;;;;-75
